createdAt,value
2016-11-08T00:00:23.671Z,0
2016-11-08T00:01:24.110Z,0
2016-11-08T00:02:23.652Z,0
2016-11-08T00:03:23.634Z,0
2016-11-08T00:04:23.654Z,0
2016-11-08T00:05:24.206Z,0
2016-11-08T00:06:24.152Z,0
2016-11-08T00:07:24.233Z,0
2016-11-08T00:08:38.486Z,0
2016-11-08T00:09:24.604Z,0
2016-11-08T00:10:23.541Z,0
2016-11-08T00:11:23.533Z,0
2016-11-08T00:12:23.517Z,0
2016-11-08T00:13:23.505Z,0
2016-11-08T00:14:23.495Z,0
2016-11-08T00:15:23.486Z,0
2016-11-08T00:16:23.480Z,0
2016-11-08T00:17:23.763Z,0
2016-11-08T00:18:23.446Z,0
2016-11-08T00:19:23.469Z,0
2016-11-08T00:21:26.155Z,0
2016-11-08T00:22:24.413Z,0
2016-11-08T00:23:23.614Z,0
2016-11-08T00:24:23.383Z,0
2016-11-08T00:25:23.698Z,0
2016-11-08T00:26:23.350Z,0
2016-11-08T00:27:23.334Z,0
2016-11-08T00:28:23.626Z,0
2016-11-08T00:29:25.034Z,0
2016-11-08T00:30:24.368Z,0
2016-11-08T00:31:25.307Z,0
2016-11-08T00:32:23.276Z,0
2016-11-08T00:33:23.271Z,0
2016-11-08T00:34:23.794Z,0
2016-11-08T00:35:23.248Z,0
2016-11-08T00:36:23.229Z,0
2016-11-08T00:37:23.519Z,0
2016-11-08T00:38:23.204Z,0
2016-11-08T00:39:23.194Z,0
2016-11-08T00:40:23.183Z,0
2016-11-08T00:41:23.182Z,0
2016-11-08T00:42:23.165Z,0
2016-11-08T00:43:23.145Z,0
2016-11-08T00:44:23.128Z,0
2016-11-08T00:45:23.126Z,0
2016-11-08T00:46:23.108Z,0
2016-11-08T00:47:23.091Z,0
2016-11-08T00:48:23.074Z,0
2016-11-08T00:49:23.073Z,0
2016-11-08T00:50:23.050Z,0
2016-11-08T00:51:23.040Z,0
2016-11-08T00:52:23.027Z,0
2016-11-08T00:53:23.024Z,0
2016-11-08T00:54:23.005Z,0
2016-11-08T00:55:23.044Z,0
2016-11-08T00:56:22.984Z,0
2016-11-08T00:57:22.962Z,0
2016-11-08T00:58:22.953Z,0
2016-11-08T00:59:22.981Z,0
2016-11-08T01:00:22.929Z,0
2016-11-08T01:01:22.917Z,0
2016-11-08T01:02:22.904Z,0
2016-11-08T01:03:22.900Z,0
2016-11-08T01:04:22.876Z,0
2016-11-08T01:05:22.865Z,0
2016-11-08T01:06:22.853Z,0
2016-11-08T01:07:22.840Z,0
2016-11-08T01:08:22.824Z,0
2016-11-08T01:09:22.809Z,0
2016-11-08T01:10:22.799Z,0
2016-11-08T01:11:22.789Z,0
2016-11-08T01:12:22.769Z,0
2016-11-08T01:13:22.798Z,0
2016-11-08T01:14:23.894Z,0
2016-11-08T01:15:23.631Z,0
2016-11-08T01:16:23.472Z,0
2016-11-08T01:17:23.303Z,0
2016-11-08T01:18:24.051Z,0
2016-11-08T01:19:22.936Z,0
2016-11-08T01:20:22.661Z,0
2016-11-08T01:21:22.655Z,0
2016-11-08T01:22:22.644Z,0
2016-11-08T01:23:23.033Z,0
2016-11-08T01:24:23.296Z,0
2016-11-08T01:25:39.216Z,0
2016-11-08T01:26:23.246Z,0
2016-11-08T01:27:23.488Z,0
2016-11-08T01:28:23.608Z,0
2016-11-08T01:29:22.546Z,0
2016-11-08T01:30:22.536Z,0
2016-11-08T01:31:22.517Z,0
2016-11-08T01:32:22.514Z,0
2016-11-08T01:33:22.494Z,0
2016-11-08T01:34:22.489Z,0
2016-11-08T01:35:22.468Z,0
2016-11-08T01:36:22.463Z,0
2016-11-08T01:37:22.447Z,0
2016-11-08T01:38:24.896Z,0
2016-11-08T01:39:24.350Z,0
2016-11-08T01:40:23.582Z,0
2016-11-08T01:41:23.588Z,0
2016-11-08T01:42:23.390Z,0
2016-11-08T01:43:22.901Z,0
2016-11-08T01:44:22.347Z,0
2016-11-08T01:45:22.350Z,0
2016-11-08T01:46:22.335Z,0
2016-11-08T01:49:23.750Z,0
2016-11-08T01:50:22.275Z,0
2016-11-08T01:51:22.604Z,0
2016-11-08T01:52:22.667Z,0
2016-11-08T01:53:22.245Z,0
2016-11-08T01:54:22.559Z,0
2016-11-08T01:55:22.212Z,0
2016-11-08T01:56:22.202Z,0
2016-11-08T01:57:22.185Z,0
2016-11-08T01:58:22.170Z,0
2016-11-08T01:59:22.174Z,0
2016-11-08T02:00:22.154Z,0
2016-11-08T02:01:22.442Z,0
2016-11-08T02:02:22.128Z,0
2016-11-08T02:03:22.113Z,0
2016-11-08T02:04:22.102Z,0
2016-11-08T02:05:22.096Z,0
2016-11-08T02:06:22.091Z,0
2016-11-08T02:07:22.078Z,0
2016-11-08T02:08:22.101Z,0
2016-11-08T02:09:22.038Z,0
2016-11-08T02:10:22.025Z,0
2016-11-08T02:11:22.044Z,0
2016-11-08T02:12:22.008Z,0
2016-11-08T02:13:21.996Z,0
2016-11-08T02:14:21.979Z,0
2016-11-08T02:15:22.270Z,0
2016-11-08T02:16:21.957Z,0
2016-11-08T02:17:21.939Z,0
2016-11-08T02:18:21.924Z,0
2016-11-08T02:19:22.213Z,0
2016-11-08T02:20:21.915Z,0
2016-11-08T02:21:21.890Z,0
2016-11-08T02:22:21.883Z,0
2016-11-08T02:23:21.859Z,0
2016-11-08T02:24:21.850Z,0
2016-11-08T02:25:21.839Z,0
2016-11-08T02:26:21.824Z,0
2016-11-08T02:27:21.810Z,0
2016-11-08T02:28:21.796Z,0
2016-11-08T02:29:21.819Z,0
2016-11-08T02:30:21.806Z,0
2016-11-08T02:31:21.803Z,0
2016-11-08T02:32:22.293Z,0
2016-11-08T02:33:22.794Z,0
2016-11-08T02:35:36.624Z,0
2016-11-08T02:36:37.265Z,0
2016-11-08T02:37:21.691Z,0
2016-11-08T02:38:21.673Z,0
2016-11-08T02:39:21.662Z,0
2016-11-08T02:40:21.668Z,0
2016-11-08T02:41:21.989Z,0
2016-11-08T02:42:22.031Z,0
2016-11-08T02:43:23.117Z,0
2016-11-08T02:45:21.587Z,0
2016-11-08T02:46:21.679Z,0
2016-11-08T02:47:21.564Z,0
2016-11-08T02:48:21.551Z,0
2016-11-08T02:49:21.574Z,0
2016-11-08T02:50:21.523Z,0
2016-11-08T02:51:21.513Z,0
2016-11-08T02:52:21.513Z,0
2016-11-08T02:53:21.515Z,0
2016-11-08T02:54:21.471Z,0
2016-11-08T02:55:21.461Z,0
2016-11-08T02:56:22.969Z,0
2016-11-08T02:57:21.958Z,0
2016-11-08T02:58:24.149Z,0
2016-11-08T02:59:22.930Z,0
2016-11-08T03:00:21.475Z,0
2016-11-08T03:01:21.390Z,0
2016-11-08T03:02:21.374Z,0
2016-11-08T03:03:21.366Z,0
2016-11-08T03:04:21.352Z,0
2016-11-08T03:05:23.873Z,0
2016-11-08T03:06:24.410Z,0
2016-11-08T03:07:21.723Z,0
2016-11-08T03:08:21.299Z,0
2016-11-08T03:09:22.484Z,0
2016-11-08T03:10:21.274Z,0
2016-11-08T03:11:21.262Z,0
2016-11-08T03:12:21.256Z,0
2016-11-08T03:13:21.297Z,0
2016-11-08T03:14:21.231Z,0
2016-11-08T03:15:21.511Z,0
2016-11-08T03:16:21.200Z,0
2016-11-08T03:17:21.184Z,0
2016-11-08T03:18:21.173Z,0
2016-11-08T03:19:21.158Z,0
2016-11-08T03:20:21.159Z,0
2016-11-08T03:21:21.146Z,0
2016-11-08T03:22:21.162Z,0
2016-11-08T03:23:21.125Z,0
2016-11-08T03:24:21.114Z,0
2016-11-08T03:25:21.085Z,0
2016-11-08T03:26:21.079Z,0
2016-11-08T03:27:21.063Z,0
2016-11-08T03:28:21.050Z,0
2016-11-08T03:29:21.055Z,0
2016-11-08T03:30:21.026Z,0
2016-11-08T03:31:21.016Z,0
2016-11-08T03:32:21.004Z,0
2016-11-08T03:33:20.985Z,0
2016-11-08T03:34:20.981Z,0
2016-11-08T03:35:20.960Z,0
2016-11-08T03:36:20.956Z,0
2016-11-08T03:37:20.947Z,0
2016-11-08T03:38:20.930Z,0
2016-11-08T03:39:20.916Z,0
2016-11-08T03:40:20.901Z,0
2016-11-08T03:41:20.886Z,0
2016-11-08T03:42:20.887Z,0
2016-11-08T03:43:20.867Z,0
2016-11-08T03:44:21.153Z,0
2016-11-08T03:45:20.846Z,0
2016-11-08T03:46:20.829Z,0
2016-11-08T03:47:20.819Z,0
2016-11-08T03:48:20.815Z,0
2016-11-08T03:49:20.795Z,0
2016-11-08T03:51:21.720Z,0
2016-11-08T03:52:21.759Z,0
2016-11-08T03:53:20.994Z,0
2016-11-08T03:54:20.723Z,0
2016-11-08T03:55:21.116Z,0
2016-11-08T03:56:21.302Z,0
2016-11-08T03:57:20.741Z,0
2016-11-08T03:58:20.982Z,0
2016-11-08T03:59:21.115Z,0
2016-11-08T04:00:20.655Z,0
2016-11-08T04:01:35.651Z,0
2016-11-08T04:02:35.596Z,0
2016-11-08T04:03:21.569Z,0
2016-11-08T04:04:20.804Z,0
2016-11-08T04:05:21.440Z,0
2016-11-08T04:06:20.579Z,0
2016-11-08T04:07:20.599Z,0
2016-11-08T04:08:20.551Z,0
2016-11-08T04:09:20.541Z,0
2016-11-08T04:10:20.532Z,0
2016-11-08T04:11:20.524Z,0
2016-11-08T04:12:20.505Z,0
2016-11-08T04:13:20.491Z,0
2016-11-08T04:14:23.209Z,0
2016-11-08T04:16:22.310Z,0
2016-11-08T04:17:21.913Z,0
2016-11-08T04:18:21.378Z,0
2016-11-08T04:19:20.417Z,0
2016-11-08T04:20:20.423Z,0
2016-11-08T04:21:20.389Z,0
2016-11-08T04:22:20.389Z,0
2016-11-08T04:23:20.369Z,0
2016-11-08T04:24:21.700Z,0
2016-11-08T04:25:23.290Z,0
2016-11-08T04:26:20.333Z,0
2016-11-08T04:27:22.087Z,0
2016-11-08T04:28:20.976Z,0
2016-11-08T04:29:20.295Z,0
2016-11-08T04:30:20.285Z,0
2016-11-08T04:31:20.261Z,0
2016-11-08T04:32:20.254Z,0
2016-11-08T04:33:20.250Z,0
2016-11-08T04:34:20.235Z,0
2016-11-08T04:35:20.225Z,0
2016-11-08T04:36:20.210Z,0
2016-11-08T04:37:20.190Z,0
2016-11-08T04:38:20.190Z,0
2016-11-08T04:39:20.202Z,0
2016-11-08T04:40:20.164Z,0
2016-11-08T04:41:20.150Z,0
2016-11-08T04:42:20.131Z,0
2016-11-08T04:43:20.117Z,0
2016-11-08T04:44:20.110Z,0
2016-11-08T04:45:20.096Z,0
2016-11-08T04:46:20.078Z,0
2016-11-08T04:47:20.078Z,0
2016-11-08T04:48:20.058Z,0
2016-11-08T04:49:20.076Z,0
2016-11-08T04:50:20.036Z,0
2016-11-08T04:51:20.015Z,0
2016-11-08T04:52:20.006Z,0
2016-11-08T04:53:20.005Z,0
2016-11-08T04:54:19.992Z,0
2016-11-08T04:55:19.978Z,0
2016-11-08T04:56:19.956Z,0
2016-11-08T04:57:19.951Z,0
2016-11-08T04:58:19.934Z,0
2016-11-08T04:59:19.919Z,0
2016-11-08T05:00:19.911Z,0
2016-11-08T05:01:19.900Z,0
2016-11-08T05:02:19.892Z,0
2016-11-08T05:03:19.869Z,0
2016-11-08T05:04:19.864Z,0
2016-11-08T05:05:19.858Z,0
2016-11-08T05:06:19.852Z,0
2016-11-08T05:07:19.824Z,0
2016-11-08T05:08:19.811Z,0
2016-11-08T05:09:20.748Z,0
2016-11-08T05:10:20.494Z,0
2016-11-08T05:11:19.873Z,0
2016-11-08T05:12:34.779Z,0
2016-11-08T05:13:20.061Z,0
2016-11-08T05:14:19.739Z,0
2016-11-08T05:15:19.731Z,0
2016-11-08T05:16:19.716Z,0
2016-11-08T05:17:19.707Z,0
2016-11-08T05:19:20.029Z,0
2016-11-08T05:20:19.668Z,0
2016-11-08T05:21:20.305Z,0
2016-11-08T05:22:19.943Z,0
2016-11-08T05:23:19.626Z,0
2016-11-08T05:24:19.814Z,0
2016-11-08T05:25:19.602Z,0
2016-11-08T05:26:19.584Z,0
2016-11-08T05:27:19.603Z,0
2016-11-08T05:28:19.564Z,0
2016-11-08T05:29:19.553Z,0
2016-11-08T05:30:19.583Z,0
2016-11-08T05:31:19.529Z,0
2016-11-08T05:32:19.517Z,0
2016-11-08T05:33:19.848Z,0
2016-11-08T05:34:22.299Z,0
2016-11-08T05:35:19.719Z,0
2016-11-08T05:36:20.281Z,0
2016-11-08T05:37:19.629Z,0
2016-11-08T05:38:19.445Z,0
2016-11-08T05:39:19.448Z,0
2016-11-08T05:40:19.433Z,0
2016-11-08T05:41:19.421Z,0
2016-11-08T05:42:22.504Z,0
2016-11-08T05:43:22.191Z,0
2016-11-08T05:44:21.363Z,0
2016-11-08T05:45:21.395Z,4
2016-11-08T05:46:19.343Z,4
2016-11-08T05:47:19.326Z,0
2016-11-08T05:48:19.485Z,4
2016-11-08T05:49:19.305Z,4
2016-11-08T05:50:19.292Z,8
2016-11-08T05:51:19.286Z,4
2016-11-08T05:52:19.273Z,8
2016-11-08T05:53:19.295Z,8
2016-11-08T05:54:19.258Z,12
2016-11-08T05:55:19.239Z,12
2016-11-08T05:56:19.228Z,16
2016-11-08T05:57:19.246Z,16
2016-11-08T05:58:19.202Z,16
2016-11-08T05:59:19.181Z,16
2016-11-08T06:00:19.207Z,20
2016-11-08T06:01:19.163Z,20
2016-11-08T06:02:19.450Z,16
2016-11-08T06:03:19.137Z,20
2016-11-08T06:04:19.131Z,20
2016-11-08T06:05:19.114Z,20
2016-11-08T06:06:19.104Z,28
2016-11-08T06:07:19.087Z,28
2016-11-08T06:08:19.083Z,32
2016-11-08T06:09:19.056Z,32
2016-11-08T06:10:19.050Z,40
2016-11-08T06:11:19.045Z,52
2016-11-08T06:12:19.325Z,60
2016-11-08T06:13:19.020Z,44
2016-11-08T06:14:19.014Z,48
2016-11-08T06:15:18.993Z,52
2016-11-08T06:16:18.997Z,56
2016-11-08T06:17:18.969Z,64
2016-11-08T06:18:19.460Z,72
2016-11-08T06:19:18.965Z,80
2016-11-08T06:20:18.927Z,88
2016-11-08T06:21:18.923Z,92
2016-11-08T06:22:18.906Z,108
2016-11-08T06:23:18.900Z,120
2016-11-08T06:24:18.884Z,124
2016-11-08T06:25:18.865Z,132
2016-11-08T06:26:18.858Z,148
2016-11-08T06:27:20.543Z,188
2016-11-08T06:28:20.555Z,216
2016-11-08T06:29:33.985Z,212
2016-11-08T06:30:19.360Z,232
2016-11-08T06:31:19.004Z,264
2016-11-08T06:32:18.837Z,284
2016-11-08T06:33:18.779Z,340
2016-11-08T06:34:18.759Z,336
2016-11-08T06:35:18.750Z,384
2016-11-08T06:36:19.849Z,428
2016-11-08T06:37:20.276Z,408
2016-11-08T06:38:34.379Z,468
2016-11-08T06:39:19.055Z,460
2016-11-08T06:40:19.955Z,448
2016-11-08T06:41:18.677Z,488
2016-11-08T06:42:18.673Z,512
2016-11-08T06:43:18.659Z,500
2016-11-08T06:44:18.685Z,592
2016-11-08T06:45:18.627Z,576
2016-11-08T06:46:18.630Z,592
2016-11-08T06:47:18.613Z,608
2016-11-08T06:48:18.600Z,676
2016-11-08T06:49:18.895Z,740
2016-11-08T06:50:18.610Z,736
2016-11-08T06:52:20.732Z,800
2016-11-08T06:53:19.177Z,724
2016-11-08T06:54:18.535Z,732
2016-11-08T06:55:18.517Z,852
2016-11-08T06:56:18.506Z,788
2016-11-08T06:57:18.496Z,712
2016-11-08T06:58:18.478Z,920
2016-11-08T06:59:18.470Z,908
2016-11-08T07:00:20.591Z,972
2016-11-08T07:01:21.490Z,1124
2016-11-08T07:02:18.743Z,1116
2016-11-08T07:03:18.427Z,1092
2016-11-08T07:04:18.905Z,956
2016-11-08T07:05:19.518Z,1060
2016-11-08T07:06:19.089Z,1216
2016-11-08T07:07:18.407Z,1272
2016-11-08T07:08:18.365Z,1136
2016-11-08T07:09:18.351Z,1116
2016-11-08T07:10:18.344Z,1200
2016-11-08T07:11:18.339Z,1236
2016-11-08T07:12:18.324Z,1348
2016-11-08T07:13:18.309Z,1392
2016-11-08T07:14:18.292Z,1500
2016-11-08T07:15:18.322Z,1576
2016-11-08T07:16:18.272Z,1576
2016-11-08T07:17:18.296Z,1440
2016-11-08T07:18:18.246Z,1332
2016-11-08T07:19:18.238Z,1364
2016-11-08T07:20:18.232Z,1556
2016-11-08T07:21:18.222Z,1744
2016-11-08T07:22:18.206Z,1896
2016-11-08T07:23:18.190Z,2040
2016-11-08T07:24:18.187Z,1788
2016-11-08T07:25:18.171Z,1632
2016-11-08T07:26:18.157Z,1628
2016-11-08T07:27:18.148Z,1804
2016-11-08T07:28:18.134Z,1764
2016-11-08T07:29:18.127Z,1708
2016-11-08T07:30:18.113Z,1884
2016-11-08T07:31:18.100Z,1960
2016-11-08T07:32:18.107Z,1972
2016-11-08T07:33:18.073Z,1876
2016-11-08T07:34:18.067Z,1864
2016-11-08T07:35:18.058Z,2020
2016-11-08T07:36:18.046Z,2228
2016-11-08T07:37:18.029Z,2248
2016-11-08T07:38:18.019Z,2248
2016-11-08T07:39:18.043Z,2132
2016-11-08T07:40:17.993Z,1996
2016-11-08T07:41:17.991Z,2068
2016-11-08T07:42:17.976Z,2292
2016-11-08T07:43:17.960Z,2512
2016-11-08T07:44:17.955Z,2524
2016-11-08T07:45:33.011Z,2476
2016-11-08T07:46:36.054Z,2904
2016-11-08T07:47:18.879Z,3072
2016-11-08T07:48:19.063Z,2964
2016-11-08T07:49:18.252Z,2916
2016-11-08T07:50:18.531Z,2772
2016-11-08T07:51:17.880Z,2556
2016-11-08T07:52:17.866Z,2648
2016-11-08T07:53:17.850Z,2836
2016-11-08T07:54:18.352Z,3344
2016-11-08T07:55:17.888Z,3252
2016-11-08T07:56:19.632Z,3148
2016-11-08T07:57:17.813Z,3088
2016-11-08T07:58:18.650Z,3220
2016-11-08T07:59:18.109Z,3264
2016-11-08T08:00:18.433Z,3412
2016-11-08T08:01:17.772Z,3236
2016-11-08T08:02:17.808Z,3360
2016-11-08T08:03:17.755Z,3312
2016-11-08T08:04:17.736Z,3092
2016-11-08T08:05:17.767Z,3312
2016-11-08T08:06:17.718Z,3264
2016-11-08T08:07:17.705Z,3248
2016-11-08T08:08:17.711Z,3424
2016-11-08T08:09:19.541Z,3408
2016-11-08T08:11:20.104Z,3340
2016-11-08T08:12:19.645Z,3260
2016-11-08T08:13:18.990Z,3408
2016-11-08T08:14:17.928Z,2976
2016-11-08T08:15:17.624Z,2820
2016-11-08T08:16:17.617Z,2788
2016-11-08T08:17:17.604Z,3044
2016-11-08T08:18:19.907Z,3340
2016-11-08T08:19:19.648Z,3176
2016-11-08T08:20:19.743Z,3728
2016-11-08T08:21:19.919Z,4656
2016-11-08T08:22:17.762Z,4448
2016-11-08T08:23:18.482Z,3908
2016-11-08T08:24:17.526Z,3908
2016-11-08T08:25:17.535Z,3644
2016-11-08T08:26:18.128Z,3120
2016-11-08T08:27:17.494Z,3048
2016-11-08T08:28:17.791Z,3224
2016-11-08T08:29:17.474Z,3700
2016-11-08T08:30:17.506Z,4188
2016-11-08T08:31:17.459Z,4220
2016-11-08T08:32:17.686Z,4156
2016-11-08T08:33:17.435Z,4668
2016-11-08T08:34:17.431Z,4952
2016-11-08T08:35:17.413Z,5144
2016-11-08T08:36:17.432Z,4940
2016-11-08T08:37:17.697Z,4740
2016-11-08T08:38:17.385Z,5016
2016-11-08T08:39:17.367Z,5120
2016-11-08T08:40:17.362Z,5148
2016-11-08T08:41:17.387Z,5324
2016-11-08T08:42:17.344Z,5644
2016-11-08T08:43:17.354Z,5832
2016-11-08T08:44:17.319Z,6072
2016-11-08T08:45:17.307Z,5948
2016-11-08T08:46:17.533Z,5396
2016-11-08T08:47:17.317Z,5272
2016-11-08T08:48:17.280Z,5372
2016-11-08T08:49:17.280Z,5864
2016-11-08T08:50:17.456Z,6052
2016-11-08T08:51:17.246Z,6296
2016-11-08T08:52:17.239Z,5708
2016-11-08T08:53:17.231Z,5884
2016-11-08T08:54:17.213Z,6064
2016-11-08T08:55:17.222Z,6144
2016-11-08T08:56:17.214Z,6244
2016-11-08T08:57:17.231Z,6296
2016-11-08T08:58:17.187Z,6512
2016-11-08T08:59:17.407Z,7184
2016-11-08T09:00:17.184Z,8024
2016-11-08T09:01:17.179Z,8124
2016-11-08T09:02:17.169Z,8516
2016-11-08T09:04:18.495Z,7372
2016-11-08T09:05:32.749Z,6308
2016-11-08T09:06:18.385Z,5636
2016-11-08T09:07:17.120Z,5124
2016-11-08T09:08:18.305Z,6448
2016-11-08T09:09:17.414Z,10672
2016-11-08T09:10:17.091Z,11972
2016-11-08T09:11:17.076Z,8036
2016-11-08T09:12:17.069Z,8880
2016-11-08T09:13:17.374Z,7840
2016-11-08T09:14:17.053Z,8100
2016-11-08T09:15:18.097Z,7836
2016-11-08T09:17:17.622Z,7936
2016-11-08T09:18:17.157Z,7424
2016-11-08T09:19:17.005Z,7960
2016-11-08T09:20:16.995Z,8800
2016-11-08T09:21:17.188Z,9884
2016-11-08T09:22:16.974Z,13948
2016-11-08T09:23:16.970Z,13800
2016-11-08T09:24:16.956Z,10636
2016-11-08T09:25:16.960Z,10444
2016-11-08T09:26:16.942Z,10100
2016-11-08T09:27:16.931Z,8472
2016-11-08T09:28:17.355Z,8912
2016-11-08T09:29:19.799Z,8388
2016-11-08T09:30:17.167Z,9644
2016-11-08T09:31:17.667Z,11144
2016-11-08T09:32:16.963Z,13488
2016-11-08T09:33:16.877Z,13476
2016-11-08T09:34:16.871Z,11096
2016-11-08T09:35:16.855Z,9888
2016-11-08T09:36:17.205Z,9536
2016-11-08T09:38:19.725Z,10624
2016-11-08T09:39:17.495Z,11156
2016-11-08T09:40:18.434Z,11836
2016-11-08T09:41:18.085Z,11472
2016-11-08T09:42:17.053Z,14880
2016-11-08T09:43:16.818Z,13368
2016-11-08T09:44:16.784Z,11384
2016-11-08T09:45:16.769Z,11360
2016-11-08T09:46:16.760Z,10284
2016-11-08T09:47:16.756Z,12632
2016-11-08T09:48:16.744Z,12240
2016-11-08T09:49:16.732Z,11600
2016-11-08T09:50:16.722Z,11180
2016-11-08T09:51:16.717Z,11068
2016-11-08T09:52:16.710Z,9848
2016-11-08T09:53:16.705Z,9088
2016-11-08T09:54:16.689Z,9632
2016-11-08T09:55:16.689Z,9432
2016-11-08T09:56:16.675Z,8588
2016-11-08T09:57:16.666Z,7680
2016-11-08T09:58:16.662Z,9560
2016-11-08T09:59:16.648Z,9636
2016-11-08T10:00:16.670Z,10480
2016-11-08T10:01:16.635Z,8932
2016-11-08T10:02:16.631Z,7680
2016-11-08T10:03:16.656Z,7380
2016-11-08T10:04:16.614Z,9096
2016-11-08T10:05:16.604Z,9880
2016-11-08T10:06:16.600Z,9972
2016-11-08T10:07:16.583Z,8644
2016-11-08T10:08:16.818Z,9324
2016-11-08T10:09:16.564Z,9392
2016-11-08T10:10:16.588Z,9612
2016-11-08T10:11:16.550Z,10288
2016-11-08T10:12:16.541Z,9928
2016-11-08T10:13:16.531Z,9436
2016-11-08T10:14:16.532Z,8816
2016-11-08T10:15:16.512Z,11424
2016-11-08T10:16:16.509Z,9436
2016-11-08T10:17:16.493Z,7652
2016-11-08T10:18:16.487Z,6780
2016-11-08T10:19:16.488Z,6648
2016-11-08T10:20:16.474Z,6728
2016-11-08T10:21:16.468Z,7264
2016-11-08T10:22:17.107Z,6440
2016-11-08T10:23:16.904Z,6980
2016-11-08T10:24:32.646Z,6396
2016-11-08T10:25:16.689Z,5896
2016-11-08T10:26:16.830Z,6336
2016-11-08T10:27:16.419Z,5916
2016-11-08T10:28:16.409Z,5808
2016-11-08T10:29:16.705Z,6276
2016-11-08T10:30:16.389Z,5752
2016-11-08T10:31:46.202Z,5764
2016-11-08T10:33:16.822Z,6384
2016-11-08T10:34:16.356Z,6848
2016-11-08T10:35:16.659Z,7268
2016-11-08T10:36:16.343Z,7352
2016-11-08T10:37:16.330Z,7736
2016-11-08T10:38:16.328Z,9312
2016-11-08T10:39:16.318Z,9680
2016-11-08T10:40:16.308Z,9976
2016-11-08T10:41:16.302Z,10340
2016-11-08T10:42:16.298Z,10860
2016-11-08T10:43:16.283Z,10444
2016-11-08T10:44:16.270Z,9896
2016-11-08T10:45:16.270Z,9792
2016-11-08T10:46:19.234Z,8880
2016-11-08T10:47:18.808Z,8240
2016-11-08T10:48:18.235Z,8220
2016-11-08T10:49:16.536Z,8208
2016-11-08T10:50:16.471Z,9352
2016-11-08T10:51:16.215Z,11636
2016-11-08T10:52:16.208Z,12148
2016-11-08T10:53:16.204Z,12340
2016-11-08T10:54:16.500Z,12676
2016-11-08T10:55:18.044Z,13836
2016-11-08T10:56:18.654Z,13044
2016-11-08T10:57:18.675Z,11396
2016-11-08T10:58:17.213Z,11092
2016-11-08T10:59:17.743Z,12560
2016-11-08T11:00:17.349Z,13148
2016-11-08T11:01:16.684Z,12048
2016-11-08T11:02:16.135Z,11168
2016-11-08T11:03:16.124Z,11256
2016-11-08T11:04:16.112Z,10252
2016-11-08T11:05:16.413Z,9856
2016-11-08T11:06:16.099Z,10056
2016-11-08T11:07:16.091Z,10000
2016-11-08T11:08:16.090Z,11140
2016-11-08T11:09:16.075Z,10416
2016-11-08T11:10:16.084Z,9432
2016-11-08T11:11:16.069Z,10328
2016-11-08T11:12:16.063Z,11664
2016-11-08T11:13:16.056Z,7792
2016-11-08T11:14:16.043Z,7644
2016-11-08T11:15:16.034Z,8160
2016-11-08T11:16:16.028Z,7904
2016-11-08T11:17:16.329Z,7108
2016-11-08T11:18:16.017Z,6824
2016-11-08T11:19:16.045Z,6192
2016-11-08T11:20:16.032Z,4960
2016-11-08T11:21:15.995Z,4408
2016-11-08T11:22:16.297Z,5048
2016-11-08T11:23:15.983Z,5244
2016-11-08T11:24:15.974Z,4952
2016-11-08T11:25:16.271Z,3824
2016-11-08T11:26:15.954Z,3828
2016-11-08T11:27:15.951Z,3792
2016-11-08T11:28:15.956Z,4116
2016-11-08T11:29:15.939Z,4456
2016-11-08T11:30:15.929Z,5048
2016-11-08T11:31:15.923Z,4524
2016-11-08T11:32:15.911Z,4348
2016-11-08T11:33:15.900Z,4136
2016-11-08T11:34:15.933Z,4648
2016-11-08T11:35:15.891Z,4788
2016-11-08T11:36:15.887Z,4328
2016-11-08T11:37:16.180Z,3960
2016-11-08T11:38:15.869Z,3500
2016-11-08T11:39:16.165Z,3512
2016-11-08T11:40:45.665Z,2916
2016-11-08T11:42:17.338Z,2332
2016-11-08T11:43:16.432Z,2200
2016-11-08T11:44:30.730Z,1768
2016-11-08T11:45:15.816Z,1524
2016-11-08T11:46:15.835Z,1468
2016-11-08T11:47:15.801Z,1508
2016-11-08T11:48:15.832Z,1656
2016-11-08T11:49:16.431Z,2128
2016-11-08T11:50:16.525Z,2748
2016-11-08T11:51:15.772Z,4080
2016-11-08T11:52:15.766Z,5756
2016-11-08T11:53:16.503Z,7016
2016-11-08T11:54:15.741Z,6972
2016-11-08T11:55:15.734Z,6156
2016-11-08T11:56:15.728Z,5680
2016-11-08T11:57:15.714Z,5400
2016-11-08T11:58:15.707Z,5288
2016-11-08T11:59:15.704Z,5492
2016-11-08T12:00:15.720Z,5344
2016-11-08T12:01:15.689Z,4904
2016-11-08T12:02:15.710Z,4440
2016-11-08T12:03:15.680Z,4144
2016-11-08T12:05:15.656Z,3968
2016-11-08T12:06:18.266Z,4824
2016-11-08T12:07:17.197Z,5628
2016-11-08T12:08:16.037Z,5488
2016-11-08T12:09:15.958Z,5280
2016-11-08T12:10:15.637Z,5104
2016-11-08T12:11:15.604Z,4684
2016-11-08T12:12:15.607Z,4404
2016-11-08T12:13:18.054Z,4360
2016-11-08T12:15:18.528Z,4324
2016-11-08T12:16:15.875Z,4596
2016-11-08T12:17:17.190Z,5152
2016-11-08T12:18:15.582Z,5304
2016-11-08T12:19:15.539Z,4856
2016-11-08T12:20:15.524Z,4688
2016-11-08T12:21:15.526Z,4680
2016-11-08T12:22:15.549Z,4516
2016-11-08T12:23:15.501Z,4484
2016-11-08T12:24:15.494Z,4456
2016-11-08T12:25:15.498Z,4268
2016-11-08T12:26:15.483Z,4152
2016-11-08T12:27:15.474Z,3728
2016-11-08T12:28:15.776Z,3372
2016-11-08T12:29:15.458Z,3008
2016-11-08T12:30:15.445Z,2612
2016-11-08T12:31:15.437Z,2264
2016-11-08T12:32:15.429Z,2200
2016-11-08T12:33:15.418Z,2220
2016-11-08T12:34:15.411Z,2368
2016-11-08T12:35:15.408Z,2168
2016-11-08T12:36:15.400Z,1984
2016-11-08T12:37:15.390Z,1948
2016-11-08T12:38:15.691Z,2060
2016-11-08T12:39:15.371Z,2332
2016-11-08T12:40:15.378Z,2556
2016-11-08T12:41:15.658Z,2876
2016-11-08T12:42:15.356Z,3188
2016-11-08T12:43:15.351Z,3268
2016-11-08T12:44:15.327Z,3212
2016-11-08T12:45:15.321Z,3108
2016-11-08T12:46:15.313Z,2924
2016-11-08T12:47:15.298Z,2684
2016-11-08T12:48:15.290Z,3020
2016-11-08T12:49:15.296Z,3100
2016-11-08T12:50:15.285Z,2900
2016-11-08T12:51:15.274Z,3272
2016-11-08T12:52:15.534Z,3528
2016-11-08T12:53:15.558Z,3456
2016-11-08T12:54:15.246Z,3260
2016-11-08T12:55:15.550Z,3088
2016-11-08T12:56:15.223Z,2952
2016-11-08T12:57:15.233Z,2976
2016-11-08T12:58:16.123Z,2856
2016-11-08T12:59:30.107Z,2652
2016-11-08T13:00:30.753Z,2564
2016-11-08T13:01:30.091Z,2644
2016-11-08T13:02:15.931Z,2712
2016-11-08T13:03:15.170Z,2668
2016-11-08T13:04:15.167Z,2388
2016-11-08T13:05:15.148Z,2120
2016-11-08T13:06:15.139Z,2132
2016-11-08T13:08:15.979Z,2292
2016-11-08T13:09:15.719Z,2268
2016-11-08T13:10:15.135Z,2568
2016-11-08T13:11:15.395Z,3264
2016-11-08T13:12:15.090Z,3596
2016-11-08T13:13:15.084Z,3396
2016-11-08T13:14:15.070Z,3200
2016-11-08T13:15:15.056Z,2860
2016-11-08T13:16:15.051Z,2628
2016-11-08T13:17:15.039Z,2444
2016-11-08T13:18:15.032Z,2320
2016-11-08T13:19:15.019Z,2164
2016-11-08T13:20:15.018Z,1996
2016-11-08T13:21:15.007Z,2048
2016-11-08T13:22:16.556Z,2272
2016-11-08T13:23:18.239Z,2556
2016-11-08T13:24:16.089Z,2908
2016-11-08T13:25:16.011Z,3044
2016-11-08T13:26:15.675Z,3144
2016-11-08T13:27:15.316Z,2912
2016-11-08T13:28:14.939Z,2708
2016-11-08T13:29:14.938Z,2412
2016-11-08T13:30:15.304Z,1932
2016-11-08T13:31:15.744Z,1712
2016-11-08T13:32:17.647Z,1768
2016-11-08T13:33:16.221Z,1784
2016-11-08T13:34:16.682Z,1664
2016-11-08T13:35:16.767Z,1568
2016-11-08T13:36:15.732Z,1636
2016-11-08T13:37:14.857Z,1628
2016-11-08T13:38:14.847Z,1452
2016-11-08T13:39:14.851Z,1328
2016-11-08T13:40:14.833Z,1240
2016-11-08T13:41:14.855Z,1172
2016-11-08T13:42:14.812Z,1160
2016-11-08T13:43:14.806Z,1156
2016-11-08T13:44:14.797Z,1156
2016-11-08T13:45:14.787Z,1012
2016-11-08T13:46:15.315Z,1092
2016-11-08T13:47:14.770Z,1136
2016-11-08T13:48:14.757Z,1004
2016-11-08T13:49:14.747Z,860
2016-11-08T13:50:14.742Z,880
2016-11-08T13:51:14.738Z,924
2016-11-08T13:52:14.727Z,912
2016-11-08T13:53:14.704Z,988
2016-11-08T13:54:14.703Z,1200
2016-11-08T13:55:14.693Z,1364
2016-11-08T13:56:14.679Z,1648
2016-11-08T13:57:14.746Z,2124
2016-11-08T13:58:14.665Z,2364
2016-11-08T13:59:14.994Z,2528
2016-11-08T14:00:14.644Z,2772
2016-11-08T14:01:14.634Z,3080
2016-11-08T14:02:14.624Z,3272
2016-11-08T14:03:14.622Z,3276
2016-11-08T14:04:14.601Z,3316
2016-11-08T14:05:14.593Z,3260
2016-11-08T14:06:14.591Z,3052
2016-11-08T14:07:14.575Z,2744
2016-11-08T14:08:14.564Z,2520
2016-11-08T14:09:14.559Z,2380
2016-11-08T14:10:14.554Z,2304
2016-11-08T14:11:14.535Z,2348
2016-11-08T14:12:14.829Z,2420